Time;durP1;ratioP1;P1;durP2;ratioP2;P2;SDS_P1;SDS_P2;PMS_P1;PMS_P2;Temp;Humidity;BMP_temperature;BMP_pressure;BME280_temperature;BME280_humidity;BME280_pressure;Samples;Min_cycle;Max_cycle;Signal;HPM_P1;HPM_P2
2021/01/31 00:00:41;;;;;;;10.10;3.67;;;24.30;89.00;;;;;;5012975;28;20026;-62
2021/01/31 00:03:11;;;;;;;10.90;3.92;;;24.40;89.00;;;;;;5012491;28;20076;-60
2021/01/31 00:05:39;;;;;;;14.23;4.57;;;24.40;88.90;;;;;;5013147;28;20026;-61
2021/01/31 00:08:12;;;;;;;13.48;4.00;;;24.30;88.90;;;;;;5013180;28;20034;-60
2021/01/31 00:10:40;;;;;;;10.90;3.97;;;24.30;88.70;;;;;;5012699;28;20022;-63
2021/01/31 00:13:09;;;;;;;11.63;3.88;;;24.30;88.70;;;;;;5009592;28;20045;-59
2021/01/31 00:15:43;;;;;;;14.77;4.30;;;24.40;88.70;;;;;;5012121;28;20133;-61
2021/01/31 00:18:11;;;;;;;9.38;3.67;;;24.30;88.70;;;;;;5011352;28;20029;-58
2021/01/31 00:20:42;;;;;;;11.80;4.05;;;24.40;88.90;;;;;;5012612;28;20029;-60
2021/01/31 00:23:10;;;;;;;10.07;3.50;;;24.30;88.80;;;;;;5012204;28;20026;-62
2021/01/31 00:25:37;;;;;;;13.20;4.28;;;24.30;88.80;;;;;;5012375;28;20096;-63
2021/01/31 00:28:05;;;;;;;13.10;3.88;;;24.30;88.80;;;;;;5012068;28;20030;-59
2021/01/31 00:30:41;;;;;;;9.43;3.40;;;24.30;88.80;;;;;;5011992;28;20026;-60
2021/01/31 00:33:12;;;;;;;15.73;4.93;;;24.30;88.80;;;;;;5012041;28;20033;-60
2021/01/31 00:35:39;;;;;;;10.05;3.97;;;24.30;88.90;;;;;;5012093;28;20038;-62
2021/01/31 00:38:12;;;;;;;16.55;4.95;;;24.30;88.80;;;;;;5004302;28;20080;-58
2021/01/31 00:40:39;;;;;;;11.32;3.65;;;24.30;88.70;;;;;;5007069;28;20087;-58
2021/01/31 00:43:08;;;;;;;16.17;4.57;;;24.40;88.90;;;;;;5007474;28;20053;-58
2021/01/31 00:45:36;;;;;;;11.93;3.92;;;24.40;88.80;;;;;;5010372;28;20026;-56
2021/01/31 00:48:04;;;;;;;11.52;3.55;;;24.40;88.80;;;;;;5008226;28;20030;-60
2021/01/31 00:50:35;;;;;;;12.05;3.88;;;24.40;88.80;;;;;;5009495;28;20029;-60
2021/01/31 00:53:03;;;;;;;8.77;4.05;;;24.40;88.70;;;;;;5009840;28;20030;-52
2021/01/31 00:55:31;;;;;;;12.82;3.90;;;24.50;88.70;;;;;;5010141;28;20041;-61
2021/01/31 00:57:58;;;;;;;10.50;3.72;;;24.50;88.60;;;;;;5006407;28;20026;-61
2021/01/31 01:00:40;;;;;;;11.15;3.40;;;24.50;88.50;;;;;;5008437;28;20038;-59
2021/01/31 01:03:09;;;;;;;10.63;3.88;;;24.50;88.40;;;;;;5009748;28;20105;-58
2021/01/31 01:05:36;;;;;;;12.20;3.30;;;24.50;88.30;;;;;;5010469;28;20044;-58
2021/01/31 01:08:04;;;;;;;15.10;4.40;;;24.50;88.40;;;;;;5006589;28;20033;-58
2021/01/31 01:10:35;;;;;;;13.52;3.60;;;24.50;88.50;;;;;;5008708;28;20026;-53
2021/01/31 01:13:05;;;;;;;15.20;4.20;;;24.50;88.30;;;;;;5008817;28;20053;-52
2021/01/31 01:15:33;;;;;;;16.92;5.03;;;24.60;88.30;;;;;;5009356;28;20431;-59
2021/01/31 01:18:01;;;;;;;10.90;4.10;;;24.60;88.30;;;;;;5006049;28;20034;-60
2021/01/31 01:20:28;;;;;;;13.70;4.00;;;24.60;88.30;;;;;;5009472;28;20045;-58
2021/01/31 01:22:56;;;;;;;14.32;4.63;;;24.60;88.20;;;;;;5009593;28;20018;-60
2021/01/31 01:25:25;;;;;;;10.85;3.65;;;24.70;88.40;;;;;;5009634;28;20148;-61
2021/01/31 01:27:53;;;;;;;13.73;4.28;;;24.70;88.30;;;;;;5005973;28;20049;-56
2021/01/31 01:30:24;;;;;;;15.20;3.90;;;24.70;88.30;;;;;;5007749;28;20181;-57
2021/01/31 01:32:52;;;;;;;10.05;3.95;;;24.60;88.30;;;;;;5009885;28;20014;-60
2021/01/31 01:35:20;;;;;;;11.88;3.90;;;24.70;88.30;;;;;;5010171;28;20065;-53
2021/01/31 01:37:48;;;;;;;10.88;3.38;;;24.70;88.10;;;;;;5011583;28;20018;-58
2021/01/31 01:40:35;;;;;;;10.05;3.80;;;24.70;88.20;;;;;;5011686;28;20026;-57
2021/01/31 01:43:07;;;;;;;9.82;4.22;;;24.70;88.00;;;;;;5011304;28;20026;-56
2021/01/31 01:45:34;;;;;;;9.80;3.58;;;24.70;88.00;;;;;;5011536;28;20069;-55
2021/01/31 01:48:28;;;;;;;14.38;6.97;;;24.70;88.10;;;;;;5011672;28;20368;-60
2021/01/31 01:50:56;;;;;;;11.27;3.75;;;24.70;87.90;;;;;;5009934;28;20064;-60
2021/01/31 01:53:26;;;;;;;14.40;4.38;;;24.70;87.90;;;;;;5011787;28;20108;-53
2021/01/31 01:56:13;;;;;;;10.88;4.10;;;24.70;87.80;;;;;;5014619;28;20030;-58
2021/01/31 01:58:41;;;;;;;10.93;4.07;;;24.70;87.80;;;;;;5015187;28;20030;-59
2021/01/31 02:01:10;;;;;;;11.27;3.63;;;24.70;87.70;;;;;;5014414;28;20357;-57
2021/01/31 02:03:41;;;;;;;14.48;4.10;;;24.70;87.60;;;;;;5014631;28;20048;-54
2021/01/31 02:06:15;;;;;;;12.13;4.00;;;24.70;87.50;;;;;;5013683;28;20464;-57
2021/01/31 02:08:42;;;;;;;13.98;4.10;;;24.70;87.50;;;;;;5015100;28;20431;-59
2021/01/31 02:11:12;;;;;;;14.00;5.18;;;24.70;87.30;;;;;;5014356;28;20029;-54
2021/01/31 02:13:43;;;;;;;22.50;14.93;;;24.80;87.40;;;;;;5014394;28;20022;-55
2021/01/31 02:16:44;;;;;;;26.23;14.47;;;24.70;85.40;;;;;;5014768;28;20038;-54
2021/01/31 02:19:38;;;;;;;17.45;7.85;;;24.70;83.80;;;;;;5005689;28;20112;-58
2021/01/31 02:22:44;;;;;;;32.53;14.98;;;24.70;85.30;;;;;;5005841;28;21706;-54
2021/01/31 02:25:45;;;;;;;26.02;13.23;;;24.60;83.90;;;;;;5009327;28;20057;-53
2021/01/31 02:28:48;;;;;;;27.08;9.82;;;24.60;83.40;;;;;;5010046;28;20037;-58
2021/01/31 02:31:39;;;;;;;23.25;8.82;;;24.60;83.10;;;;;;5009094;28;20041;-52
2021/01/31 02:34:30;;;;;;;24.65;6.78;;;24.50;83.90;;;;;;4991580;28;20544;-61
2021/01/31 02:37:28;;;;;;;24.15;5.05;;;24.30;83.40;;;;;;4993476;28;20042;-61
2021/01/31 02:40:04;;;;;;;26.48;5.97;;;24.10;83.10;;;;;;4991326;28;20100;-62
2021/01/31 02:42:57;;;;;;;19.35;6.28;;;23.90;83.10;;;;;;4994589;28;20115;-62
2021/01/31 02:45:41;;;;;;;25.10;7.43;;;23.90;85.30;;;;;;4994651;28;20025;-55
2021/01/31 02:48:36;;;;;;;27.42;7.93;;;23.80;88.20;;;;;;4994629;28;20062;-58
2021/01/31 02:51:35;;;;;;;26.67;6.30;;;23.70;87.80;;;;;;4994259;28;20491;-61
2021/01/31 02:54:17;;;;;;;22.35;7.32;;;23.70;88.10;;;;;;5000773;28;20505;-58
2021/01/31 02:57:09;;;;;;;28.40;7.90;;;23.90;87.70;;;;;;4994551;28;20027;-60
2021/01/31 02:59:46;;;;;;;22.35;7.45;;;23.90;88.80;;;;;;4993256;28;20278;-51
2021/01/31 03:02:26;;;;;;;18.40;7.63;;;24.00;89.70;;;;;;4994359;28;20019;-49
2021/01/31 03:05:08;;;;;;;22.25;7.35;;;24.20;90.00;;;;;;4994003;28;20022;-51
2021/01/31 03:07:36;;;;;;;;;;;24.30;89.10;;;;;;4993624;28;20022;-51
2021/01/31 03:10:15;;;;;;;28.25;7.88;;;24.40;88.90;;;;;;4994137;28;19906;-52
2021/01/31 03:13:05;;;;;;;25.80;7.25;;;24.50;88.70;;;;;;4992805;28;20496;-53
2021/01/31 03:15:37;;;;;;;26.08;8.63;;;24.50;88.60;;;;;;4993456;28;20130;-54
2021/01/31 03:18:10;;;;;;;25.60;7.32;;;24.60;89.30;;;;;;4993731;28;20086;-54
2021/01/31 03:20:49;;;;;;;24.35;7.68;;;24.70;89.90;;;;;;4994250;28;20045;-54
2021/01/31 03:23:24;;;;;;;31.63;6.82;;;24.70;89.40;;;;;;4993356;28;20065;-51
2021/01/31 03:25:57;;;;;;;25.58;7.18;;;24.70;90.00;;;;;;4993272;28;20054;-51
2021/01/31 03:28:25;;;;;;;25.92;6.57;;;24.70;90.00;;;;;;4993331;28;20161;-54
2021/01/31 03:30:53;;;;;;;22.15;5.78;;;24.70;90.30;;;;;;4995146;28;20034;-52
2021/01/31 03:33:36;;;;;;;20.50;6.32;;;24.70;90.40;;;;;;5013216;28;20026;-51
2021/01/31 03:36:04;;;;;;;27.80;6.22;;;24.70;90.10;;;;;;5011687;28;20033;-53
2021/01/31 03:38:49;;;;;;;29.23;6.38;;;24.70;90.00;;;;;;5012733;28;20029;-49
2021/01/31 03:41:19;;;;;;;24.13;6.05;;;24.70;90.00;;;;;;5012889;28;20077;-52
2021/01/31 03:43:47;;;;;;;20.27;5.75;;;24.70;89.70;;;;;;5013059;28;20026;-51
2021/01/31 03:46:23;;;;;;;25.35;5.68;;;24.70;89.40;;;;;;5001566;28;20038;-48
2021/01/31 03:49:00;;;;;;;20.45;5.28;;;24.70;88.70;;;;;;5010443;28;20029;-54
2021/01/31 03:51:29;;;;;;;21.27;5.53;;;24.60;88.40;;;;;;5009744;28;20079;-52
2021/01/31 03:53:57;;;;;;;20.95;5.75;;;24.60;88.00;;;;;;5010588;28;20104;-51
2021/01/31 03:56:45;;;;;;;26.77;6.07;;;24.60;88.40;;;;;;5006895;28;20503;-47
2021/01/31 03:59:19;;;;;;;30.00;6.03;;;24.60;88.90;;;;;;5010235;28;20108;-52
2021/01/31 04:01:49;;;;;;;26.55;5.53;;;24.60;88.80;;;;;;5010900;28;20060;-50
2021/01/31 04:04:27;;;;;;;26.20;5.53;;;24.60;87.00;;;;;;5010182;28;20037;-55
2021/01/31 04:06:58;;;;;;;19.55;5.22;;;24.60;87.30;;;;;;5006645;28;20026;-61
2021/01/31 04:09:26;;;;;;;20.85;5.57;;;24.60;88.60;;;;;;5010972;28;20044;-54
2021/01/31 04:12:07;;;;;;;26.95;5.45;;;24.70;87.70;;;;;;5010644;28;20476;-51
2021/01/31 04:14:39;;;;;;;26.98;6.45;;;24.70;87.30;;;;;;5009431;28;20093;-53
2021/01/31 04:17:07;;;;;;;22.77;5.80;;;24.70;88.70;;;;;;5006840;28;20060;-57
2021/01/31 04:19:34;;;;;;;23.63;5.50;;;24.80;88.70;;;;;;5009911;28;20110;-55
2021/01/31 04:22:02;;;;;;;29.48;6.25;;;24.80;88.00;;;;;;5010714;28;20113;-54
2021/01/31 04:24:29;;;;;;;100.07;15.70;;;24.70;88.70;;;;;;5009774;28;20041;-53
2021/01/31 04:26:59;;;;;;;95.78;12.13;;;24.70;88.60;;;;;;5005114;28;20484;-54
2021/01/31 04:29:27;;;;;;;72.07;11.57;;;24.70;88.90;;;;;;5008024;28;20392;-52
2021/01/31 04:31:54;;;;;;;59.55;11.93;;;24.70;89.30;;;;;;5010405;28;20017;-54
2021/01/31 04:34:22;;;;;;;51.72;10.23;;;24.70;88.70;;;;;;5010365;28;20100;-51
2021/01/31 04:36:49;;;;;;;47.42;8.68;;;24.60;90.00;;;;;;5006778;28;20037;-56
2021/01/31 04:39:16;;;;;;;43.95;7.15;;;24.60;89.70;;;;;;5010177;28;20080;-55
2021/01/31 04:41:44;;;;;;;42.22;8.30;;;24.60;90.10;;;;;;5009980;28;20030;-55
2021/01/31 04:44:17;;;;;;;31.80;7.57;;;24.50;90.20;;;;;;5010034;28;20018;-49
2021/01/31 04:46:55;;;;;;;37.55;7.55;;;24.50;90.00;;;;;;5004260;28;20534;-53
2021/01/31 04:49:50;;;;;;;30.70;6.75;;;24.50;90.30;;;;;;5009080;28;20499;-53
2021/01/31 04:52:39;;;;;;;31.48;5.70;;;24.40;90.90;;;;;;5008211;28;20022;-52
2021/01/31 04:55:50;;;;;;;26.67;5.72;;;24.40;90.30;;;;;;5009767;28;20042;-57
2021/01/31 04:58:22;;;;;;;28.17;6.65;;;24.30;90.60;;;;;;5006337;28;20054;-48
2021/01/31 05:01:29;;;;;;;34.80;6.03;;;24.50;90.50;;;;;;5006141;28;20037;-55
2021/01/31 05:04:06;;;;;;;38.35;6.45;;;24.50;90.70;;;;;;5009476;28;20144;-54
2021/01/31 05:06:46;;;;;;;23.92;6.25;;;24.50;89.80;;;;;;5005907;28;21072;-55
2021/01/31 05:09:18;;;;;;;27.80;5.47;;;24.50;90.70;;;;;;5010178;28;20034;-60
2021/01/31 05:12:00;;;;;;;20.35;5.35;;;24.50;90.50;;;;;;5011712;28;20018;-61
2021/01/31 05:14:45;;;;;;;;;;;24.50;90.40;;;;;;5012034;28;20393;-61
2021/01/31 05:17:16;;;;;;;24.27;4.68;;;24.50;90.30;;;;;;5011684;28;19999;-61
2021/01/31 05:19:43;;;;;;;19.73;5.70;;;24.50;90.30;;;;;;5011958;28;20026;-60
2021/01/31 05:22:13;;;;;;;23.42;5.60;;;24.50;90.30;;;;;;5011619;28;20094;-60
2021/01/31 05:24:40;;;;;;;27.77;7.50;;;24.20;90.30;;;;;;5011536;28;20042;-62
2021/01/31 05:27:08;;;;;;;23.77;8.05;;;23.90;90.90;;;;;;5011525;28;20485;-61
2021/01/31 05:29:39;;;;;;;23.83;5.63;;;23.80;91.70;;;;;;5012058;28;20033;-64
2021/01/31 05:32:12;;;;;;;30.35;6.57;;;23.30;90.10;;;;;;5015571;28;20227;-63
2021/01/31 05:34:49;;;;;;;25.48;8.15;;;23.40;91.40;;;;;;5015242;28;20116;-63
2021/01/31 05:37:25;;;;;;;27.88;9.20;;;23.40;91.40;;;;;;5015389;28;20032;-61
2021/01/31 05:40:03;;;;;;;26.95;9.02;;;23.40;91.20;;;;;;5014077;28;20026;-61
2021/01/31 05:42:33;;;;;;;31.98;10.55;;;23.30;90.90;;;;;;5006066;28;20038;-61
2021/01/31 05:45:09;;;;;;;23.40;5.75;;;23.40;90.50;;;;;;5012082;28;20022;-65
2021/01/31 05:47:43;;;;;;;22.02;6.20;;;23.40;91.10;;;;;;5010423;28;20295;-63
2021/01/31 05:50:26;;;;;;;26.95;11.82;;;23.20;91.90;;;;;;5011891;28;20118;-63
2021/01/31 05:52:53;;;;;;;28.35;12.32;;;23.40;91.30;;;;;;5011924;28;20633;-60
2021/01/31 05:55:29;;;;;;;27.63;6.70;;;23.40;90.80;;;;;;5013340;28;20033;-64
2021/01/31 05:58:23;;;;;;;18.38;5.45;;;23.30;90.20;;;;;;5009418;28;20026;-63
2021/01/31 06:01:07;;;;;;;31.05;6.97;;;23.40;90.60;;;;;;5010550;28;20074;-62
2021/01/31 06:03:34;;;;;;;22.90;8.25;;;23.40;91.10;;;;;;5013356;28;20057;-64
2021/01/31 06:06:11;;;;;;;25.60;6.13;;;23.30;90.90;;;;;;5013244;28;20026;-65
2021/01/31 06:08:45;;;;;;;27.80;9.45;;;23.30;91.40;;;;;;5009723;28;20026;-63
2021/01/31 06:11:31;;;;;;;24.25;5.63;;;23.30;89.30;;;;;;5010282;28;20438;-64
2021/01/31 06:14:15;;;;;;;26.55;11.20;;;23.20;89.60;;;;;;5011229;28;20033;-58
2021/01/31 06:16:44;;;;;;;27.30;12.75;;;23.40;91.20;;;;;;5013231;28;20099;-53
2021/01/31 06:19:37;;;;;;;22.80;11.52;;;23.60;91.00;;;;;;5009342;28;20018;-56
2021/01/31 06:22:10;;;;;;;23.58;10.43;;;23.80;90.60;;;;;;5011023;28;20782;-53
2021/01/31 06:24:37;;;;;;;20.15;10.48;;;23.90;90.40;;;;;;5012026;28;20392;-52
2021/01/31 06:27:06;;;;;;;24.30;11.95;;;24.00;90.30;;;;;;5012200;28;20480;-58
2021/01/31 06:29:47;;;;;;;20.65;11.45;;;24.00;90.20;;;;;;5007755;28;20042;-52
2021/01/31 06:32:23;;;;;;;25.50;11.90;;;24.10;90.00;;;;;;5010274;28;20496;-57
2021/01/31 06:34:59;;;;;;;25.40;11.05;;;24.20;89.90;;;;;;5012478;28;20034;-53
2021/01/31 06:37:41;;;;;;;27.92;13.38;;;24.10;89.70;;;;;;5008742;28;20029;-61
2021/01/31 06:40:45;;;;;;;28.77;12.38;;;24.20;90.00;;;;;;5009245;28;20428;-54
2021/01/31 06:43:20;;;;;;;24.02;11.90;;;24.20;89.70;;;;;;5011507;28;20402;-59
2021/01/31 06:46:25;;;;;;;22.70;10.70;;;24.30;89.80;;;;;;5012577;28;20029;-56
2021/01/31 06:49:29;;;;;;;19.50;10.02;;;24.30;89.60;;;;;;5004692;28;20034;-61
2021/01/31 06:52:28;;;;;;;19.90;10.40;;;24.30;89.30;;;;;;5008938;28;20577;-56
2021/01/31 06:55:07;;;;;;;22.13;11.15;;;24.30;89.20;;;;;;5008490;28;20030;-59
2021/01/31 06:58:09;;;;;;;21.58;10.80;;;24.30;89.30;;;;;;5006317;28;20492;-52
2021/01/31 07:01:13;;;;;;;25.10;10.50;;;24.30;89.30;;;;;;5010101;28;20026;-61
2021/01/31 07:04:05;;;;;;;21.58;10.27;;;24.30;89.30;;;;;;5010682;28;20432;-54
2021/01/31 07:06:56;;;;;;;18.83;9.30;;;24.30;89.30;;;;;;5009369;28;20030;-53
2021/01/31 07:09:35;;;;;;;18.40;9.90;;;24.30;89.30;;;;;;5007676;28;20378;-55
2021/01/31 07:12:28;;;;;;;16.30;8.63;;;24.30;89.20;;;;;;5011395;28;20030;-59
2021/01/31 07:15:06;;;;;;;18.48;9.27;;;24.30;89.30;;;;;;5011645;28;20243;-54
2021/01/31 07:17:38;;;;;;;22.63;9.25;;;24.30;89.40;;;;;;5008750;28;20068;-54
2021/01/31 07:20:22;;;;;;;17.90;8.35;;;24.30;89.30;;;;;;5009368;28;20029;-55
2021/01/31 07:23:29;;;;;;;22.80;9.32;;;24.30;89.00;;;;;;5011190;28;20098;-58
2021/01/31 07:26:29;;;;;;;25.65;9.00;;;24.40;89.20;;;;;;4989459;28;20117;-60
2021/01/31 07:29:00;;;;;;;18.23;8.80;;;24.30;89.10;;;;;;5007477;28;20038;-56
2021/01/31 07:31:43;;;;;;;18.30;8.77;;;24.30;89.10;;;;;;5010780;28;20029;-58
2021/01/31 07:34:27;;;;;;;17.23;8.55;;;24.30;89.10;;;;;;5009649;28;20026;-55
2021/01/31 07:37:09;;;;;;;16.73;8.52;;;24.30;89.10;;;;;;5009847;28;20112;-56
2021/01/31 07:39:43;;;;;;;;;;;24.30;89.20;;;;;;5009208;28;20111;-57
2021/01/31 07:42:12;;;;;;;19.15;7.95;;;24.30;89.20;;;;;;5011193;28;19949;-59
2021/01/31 07:44:41;;;;;;;17.00;8.02;;;24.30;89.20;;;;;;5011674;28;20026;-55
2021/01/31 07:47:08;;;;;;;15.38;7.03;;;24.30;89.40;;;;;;5009559;28;20025;-61
2021/01/31 07:49:57;;;;;;;16.58;8.00;;;24.20;89.30;;;;;;5008266;28;20049;-58
2021/01/31 07:52:27;;;;;;;20.17;7.70;;;24.20;89.30;;;;;;5010796;28;20120;-59
2021/01/31 07:55:19;;;;;;;17.00;7.82;;;24.20;89.40;;;;;;5011126;28;20029;-58
2021/01/31 07:58:06;;;;;;;;;;;24.20;89.50;;;;;;5008804;28;20407;-64
2021/01/31 08:00:45;;;;;;;15.20;7.60;;;24.20;89.50;;;;;;5012688;28;19912;-59
2021/01/31 08:03:28;;;;;;;18.30;7.68;;;24.10;89.50;;;;;;5012841;28;20581;-59
2021/01/31 08:06:12;;;;;;;18.23;7.50;;;24.10;89.60;;;;;;5012998;28;20034;-56
2021/01/31 08:08:50;;;;;;;14.27;7.18;;;24.10;89.50;;;;;;5012550;28;20040;-60
2021/01/31 08:11:17;;;;;;;13.15;6.40;;;24.10;89.50;;;;;;5011936;28;20058;-59
2021/01/31 08:13:48;;;;;;;14.30;5.72;;;24.10;89.60;;;;;;5010580;28;20072;-59
2021/01/31 08:16:49;;;;;;;15.80;6.70;;;24.10;89.60;;;;;;5002359;28;20042;-57
2021/01/31 08:19:19;;;;;;;13.15;6.50;;;24.00;89.90;;;;;;5008011;28;20279;-56
2021/01/31 08:22:13;;;;;;;11.82;6.07;;;24.00;90.10;;;;;;5009251;28;20022;-61
2021/01/31 08:25:04;;;;;;;14.52;6.40;;;24.00;90.00;;;;;;5008821;28;20065;-50
2021/01/31 08:27:40;;;;;;;15.05;6.43;;;24.00;90.00;;;;;;5009311;28;20472;-58
2021/01/31 08:30:22;;;;;;;15.60;7.18;;;24.00;89.80;;;;;;5010882;28;20045;-57
2021/01/31 08:33:17;;;;;;;16.30;6.78;;;24.00;89.80;;;;;;5007326;28;20068;-60
2021/01/31 08:35:45;;;;;;;12.50;5.90;;;24.00;89.70;;;;;;5008756;28;20033;-59
2021/01/31 08:38:28;;;;;;;14.68;6.45;;;24.00;89.90;;;;;;5009872;28;20098;-58
2021/01/31 08:41:31;;;;;;;11.27;6.45;;;24.00;89.80;;;;;;5008591;28;20034;-53
2021/01/31 08:44:18;;;;;;;13.98;5.95;;;24.00;89.70;;;;;;5003442;28;20037;-63
2021/01/31 08:47:05;;;;;;;12.52;6.80;;;24.10;89.70;;;;;;5006788;28;20469;-54
2021/01/31 08:49:33;;;;;;;12.20;5.80;;;24.10;89.60;;;;;;5008215;28;20087;-58
2021/01/31 08:52:23;;;;;;;13.05;6.10;;;24.10;89.70;;;;;;5010910;28;20408;-58
2021/01/31 08:55:06;;;;;;;14.75;5.75;;;24.10;89.60;;;;;;5006569;28;20503;-53
2021/01/31 08:57:40;;;;;;;12.73;6.45;;;24.10;89.50;;;;;;5003023;28;20038;-58
2021/01/31 09:00:11;;;;;;;12.32;5.13;;;24.10;89.50;;;;;;5006551;28;20076;-52
2021/01/31 09:02:44;;;;;;;13.80;6.20;;;24.10;89.50;;;;;;5006144;28;20854;-55
2021/01/31 09:05:22;;;;;;;11.38;5.03;;;24.10;89.50;;;;;;5007636;28;20309;-55
2021/01/31 09:07:58;;;;;;;10.07;5.05;;;24.10;89.30;;;;;;5009773;28;20030;-59
2021/01/31 09:10:34;;;;;;;11.10;4.82;;;24.10;89.40;;;;;;5010249;28;20018;-58
2021/01/31 09:13:30;;;;;;;11.13;5.10;;;24.10;89.30;;;;;;5009400;28;20037;-56
2021/01/31 09:16:26;;;;;;;11.45;5.18;;;24.00;89.30;;;;;;5014086;28;20506;-62
2021/01/31 09:19:22;;;;;;;15.63;5.57;;;24.00;89.40;;;;;;5011842;28;20053;-54
2021/01/31 09:22:10;;;;;;;12.27;4.85;;;24.00;89.40;;;;;;5013457;28;20026;-53
2021/01/31 09:24:42;;;;;;;12.55;5.00;;;24.00;89.30;;;;;;5012737;28;20500;-50
2021/01/31 09:27:17;;;;;;;13.00;5.38;;;24.00;89.20;;;;;;5013417;28;20141;-56
2021/01/31 09:29:46;;;;;;;10.50;5.35;;;24.00;89.20;;;;;;5012112;28;20564;-50
2021/01/31 09:32:23;;;;;;;9.50;4.85;;;24.00;89.70;;;;;;5012418;28;20041;-55
2021/01/31 09:34:52;;;;;;;16.27;5.57;;;24.00;89.00;;;;;;5012732;28;20026;-52
2021/01/31 09:37:29;;;;;;;9.60;4.88;;;24.00;89.20;;;;;;5013317;28;20026;-53
2021/01/31 09:40:00;;;;;;;11.63;4.68;;;24.00;89.60;;;;;;5014491;28;20125;-49
2021/01/31 09:42:36;;;;;;;13.20;4.50;;;24.00;89.20;;;;;;5010610;28;20034;-54
2021/01/31 09:45:17;;;;;;;9.40;4.60;;;24.00;89.10;;;;;;5013851;28;20030;-50
2021/01/31 09:47:48;;;;;;;8.90;4.47;;;24.00;89.10;;;;;;5010943;28;20033;-51
2021/01/31 09:50:17;;;;;;;10.60;4.60;;;24.00;89.10;;;;;;5014118;28;20397;-55
2021/01/31 09:52:46;;;;;;;11.93;5.05;;;24.00;89.20;;;;;;5010875;28;20026;-60
2021/01/31 09:55:42;;;;;;;10.38;5.15;;;23.90;89.20;;;;;;5013629;28;20476;-56
2021/01/31 09:58:50;;;;;;;7.68;4.07;;;23.90;89.00;;;;;;5012252;28;20392;-57
2021/01/31 10:01:26;;;;;;;13.45;4.78;;;23.90;89.20;;;;;;5013280;28;20046;-60
2021/01/31 10:03:58;;;;;;;10.55;4.47;;;23.90;89.20;;;;;;5010196;28;20121;-60
2021/01/31 10:06:26;;;;;;;;;;;23.90;89.10;;;;;;5013293;28;20045;-57
2021/01/31 10:09:00;;;;;;;10.88;4.60;;;23.90;89.30;;;;;;5012944;28;20004;-58
2021/01/31 10:11:38;;;;;;;11.45;5.20;;;23.90;89.30;;;;;;5013220;28;20403;-60
2021/01/31 10:14:08;;;;;;;10.35;4.10;;;23.90;89.30;;;;;;5010441;28;20030;-56
2021/01/31 10:16:38;;;;;;;9.02;4.10;;;23.80;89.30;;;;;;5011208;28;20041;-60
2021/01/31 10:19:26;;;;;;;8.68;4.32;;;23.90;89.40;;;;;;5012860;28;20022;-62
2021/01/31 10:21:54;;;;;;;11.98;4.72;;;23.90;89.30;;;;;;5011284;28;20469;-61
2021/01/31 10:24:32;;;;;;;9.00;4.18;;;23.90;89.30;;;;;;5009589;28;20042;-56
2021/01/31 10:27:33;;;;;;;8.90;3.70;;;23.90;89.30;;;;;;5012017;28;20361;-62
2021/01/31 10:30:27;;;;;;;12.73;4.18;;;23.90;89.30;;;;;;5011855;28;20459;-60
2021/01/31 10:32:55;;;;;;;10.15;4.60;;;23.90;89.20;;;;;;5009510;28;20576;-58
2021/01/31 10:35:39;;;;;;;13.07;3.75;;;23.90;89.30;;;;;;5012706;28;20535;-62
2021/01/31 10:38:31;;;;;;;7.72;3.85;;;23.90;89.20;;;;;;5011171;28;20386;-60
2021/01/31 10:41:00;;;;;;;11.45;4.18;;;23.80;89.10;;;;;;5010322;28;20060;-62
2021/01/31 10:43:28;;;;;;;10.60;4.78;;;23.90;89.10;;;;;;5008966;28;20076;-58
2021/01/31 10:45:55;;;;;;;10.93;4.20;;;23.90;89.10;;;;;;5011065;28;20100;-57
2021/01/31 10:48:23;;;;;;;10.32;3.75;;;23.90;89.10;;;;;;5010134;28;20487;-52
2021/01/31 10:50:50;;;;;;;8.95;4.35;;;23.90;89.60;;;;;;5011625;28;20040;-54
2021/01/31 10:53:17;;;;;;;11.43;4.22;;;23.90;88.90;;;;;;5005881;28;20049;-53
2021/01/31 10:55:46;;;;;;;9.43;3.70;;;23.90;89.00;;;;;;5012641;28;20037;-58
2021/01/31 10:58:14;;;;;;;9.60;4.18;;;23.90;88.80;;;;;;5011678;28;20026;-61
2021/01/31 11:00:41;;;;;;;10.18;3.67;;;23.90;88.80;;;;;;5010883;28;20400;-62
2021/01/31 11:03:09;;;;;;;13.70;3.97;;;23.90;88.80;;;;;;5008762;28;20022;-63
2021/01/31 11:05:36;;;;;;;9.70;3.35;;;23.90;87.70;;;;;;5012482;28;20562;-60
2021/01/31 11:08:04;;;;;;;9.07;3.53;;;23.90;88.70;;;;;;5011849;28;20022;-59
2021/01/31 11:10:32;;;;;;;9.82;4.05;;;23.90;88.80;;;;;;5009653;28;20105;-59
2021/01/31 11:12:59;;;;;;;9.60;3.78;;;23.90;88.60;;;;;;5008411;28;20022;-56
2021/01/31 11:15:26;;;;;;;7.53;3.85;;;23.90;88.60;;;;;;5012201;28;20034;-61
2021/01/31 11:17:54;;;;;;;9.15;3.65;;;23.90;88.50;;;;;;5011745;28;20061;-59
2021/01/31 11:20:21;;;;;;;9.43;3.60;;;23.90;88.50;;;;;;5012430;28;20516;-58
2021/01/31 11:22:48;;;;;;;9.60;3.85;;;23.90;88.40;;;;;;5008509;28;20064;-62
2021/01/31 11:25:16;;;;;;;12.38;4.13;;;23.90;88.50;;;;;;5011621;28;20077;-57
2021/01/31 11:27:43;;;;;;;8.75;3.20;;;23.90;88.50;;;;;;5010721;28;20077;-59
2021/01/31 11:30:11;;;;;;;13.35;3.85;;;23.90;88.40;;;;;;5028625;28;20037;-60
2021/01/31 11:32:39;;;;;;;9.60;3.35;;;23.90;88.50;;;;;;5013540;28;20539;-59
2021/01/31 11:35:07;;;;;;;11.55;3.63;;;23.90;88.50;;;;;;5013497;28;20087;-62
2021/01/31 11:37:34;;;;;;;4.45;2.53;;;23.90;88.60;;;;;;5013624;28;20030;-61
2021/01/31 11:40:03;;;;;;;8.30;3.53;;;23.80;88.60;;;;;;5013343;28;20032;-60
2021/01/31 11:42:30;;;;;;;10.25;3.53;;;23.80;88.60;;;;;;5013568;28;20104;-59
2021/01/31 11:44:57;;;;;;;10.52;3.38;;;23.90;88.60;;;;;;5010112;28;20183;-60
2021/01/31 11:47:24;;;;;;;7.65;3.53;;;23.80;88.60;;;;;;5012591;28;20680;-59
2021/01/31 11:49:53;;;;;;;10.98;3.58;;;23.80;88.60;;;;;;5013627;28;20042;-60
2021/01/31 11:52:21;;;;;;;10.52;3.08;;;23.80;88.50;;;;;;5011988;28;20033;-60
2021/01/31 11:54:48;;;;;;;10.23;3.63;;;23.80;88.60;;;;;;5012644;28;20029;-59
2021/01/31 11:57:15;;;;;;;9.73;3.53;;;23.80;88.50;;;;;;5013096;28;20109;-60
2021/01/31 11:59:43;;;;;;;9.48;3.38;;;23.80;88.60;;;;;;5013236;28;20118;-60
2021/01/31 12:02:10;;;;;;;8.20;3.42;;;23.80;88.60;;;;;;5013090;28;20030;-58
2021/01/31 12:04:40;;;;;;;8.20;2.75;;;23.80;88.60;;;;;;5012987;28;20022;-58
2021/01/31 12:07:09;;;;;;;9.93;3.33;;;23.80;88.50;;;;;;5012898;28;20061;-59
2021/01/31 12:09:37;;;;;;;7.13;2.75;;;23.70;88.90;;;;;;5011952;28;20373;-53
2021/01/31 12:12:04;;;;;;;10.00;3.13;;;23.80;89.10;;;;;;5013092;28;20036;-53
2021/01/31 12:14:32;;;;;;;7.55;2.65;;;23.80;89.10;;;;;;5012680;28;20029;-54
2021/01/31 12:16:59;;;;;;;11.15;3.85;;;23.70;89.00;;;;;;5011277;28;20138;-58
2021/01/31 12:19:27;;;;;;;8.38;3.33;;;23.80;89.10;;;;;;5003625;28;20052;-55
2021/01/31 12:21:54;;;;;;;7.85;3.15;;;23.70;89.00;;;;;;5008255;28;20033;-56
2021/01/31 12:24:22;;;;;;;7.43;3.05;;;23.80;88.70;;;;;;5010674;28;20115;-58
2021/01/31 12:26:52;;;;;;;11.75;3.33;;;23.70;88.80;;;;;;5011081;28;20022;-60
2021/01/31 12:29:20;;;;;;;9.38;3.35;;;23.80;88.80;;;;;;5010686;28;20117;-61
2021/01/31 12:31:47;;;;;;;9.82;3.03;;;23.80;88.80;;;;;;5008806;28;20034;-59
2021/01/31 12:34:14;;;;;;;8.25;3.00;;;23.80;88.80;;;;;;5011034;28;20179;-60
2021/01/31 12:36:43;;;;;;;9.88;3.35;;;23.80;88.70;;;;;;5012692;28;20038;-61
2021/01/31 12:39:11;;;;;;;7.78;3.28;;;23.80;88.70;;;;;;5011851;28;20061;-59
2021/01/31 12:41:38;;;;;;;8.07;3.15;;;23.80;88.60;;;;;;5012329;28;20083;-60
2021/01/31 12:44:05;;;;;;;9.32;3.10;;;23.80;88.50;;;;;;5012482;28;20083;-60
2021/01/31 12:46:33;;;;;;;7.38;2.70;;;23.80;88.50;;;;;;5012490;28;20026;-59
2021/01/31 12:49:00;;;;;;;8.38;3.38;;;23.80;88.50;;;;;;5012226;28;20384;-60
2021/01/31 12:51:28;;;;;;;6.72;2.95;;;23.70;88.50;;;;;;5012495;28;20025;-60
2021/01/31 12:53:55;;;;;;;9.30;2.47;;;23.80;88.50;;;;;;5012416;28;20030;-60
2021/01/31 12:56:22;;;;;;;8.70;3.28;;;23.70;88.50;;;;;;5012132;28;20131;-60
2021/01/31 12:58:50;;;;;;;5.95;2.50;;;23.70;88.50;;;;;;5012139;28;20476;-59
2021/01/31 13:01:17;;;;;;;7.30;2.85;;;23.70;88.50;;;;;;5011470;28;20045;-60
2021/01/31 13:03:44;;;;;;;8.43;3.15;;;23.70;88.60;;;;;;5012254;28;20026;-60
2021/01/31 13:06:12;;;;;;;5.63;2.53;;;23.70;88.70;;;;;;5012380;28;20492;-60
2021/01/31 13:08:39;;;;;;;7.60;2.78;;;23.70;88.70;;;;;;5012508;28;20476;-59
2021/01/31 13:11:07;;;;;;;8.30;2.97;;;23.70;88.70;;;;;;5004928;28;20030;-59
2021/01/31 13:13:34;;;;;;;8.88;2.83;;;23.70;88.70;;;;;;5008765;28;20022;-60
2021/01/31 13:16:01;;;;;;;11.00;3.60;;;23.70;88.70;;;;;;5008117;28;20057;-59
2021/01/31 13:18:29;;;;;;;7.78;3.10;;;23.60;88.60;;;;;;5008202;28;20029;-60
2021/01/31 13:20:56;;;;;;;10.05;3.28;;;23.60;88.70;;;;;;5007829;28;20109;-60